createdAt,value
2017-11-01T00:01:22.998Z,7.17
2017-11-01T00:03:51.936Z,8.20
2017-11-01T00:06:20.195Z,8.10
2017-11-01T00:08:48.382Z,8.17
2017-11-01T00:11:16.520Z,8.00
2017-11-01T00:13:44.662Z,8.20
2017-11-01T00:16:12.812Z,7.43
2017-11-01T00:18:40.959Z,7.80
2017-11-01T00:21:09.123Z,8.33
2017-11-01T00:23:37.275Z,8.33
2017-11-01T00:26:05.477Z,8.57
2017-11-01T00:28:33.629Z,9.37
2017-11-01T00:31:01.823Z,8.73
2017-11-01T00:40:30.506Z,9.50
2017-11-01T00:42:59.460Z,10.10
2017-11-01T00:45:27.623Z,10.70
2017-11-01T00:47:55.792Z,10.90
2017-11-01T00:50:23.935Z,10.47
2017-11-01T00:52:52.513Z,11.13
2017-11-01T00:55:20.660Z,12.80
2017-11-01T00:57:49.614Z,11.17
2017-11-01T01:00:18.292Z,11.33
2017-11-01T01:02:46.463Z,12.30
2017-11-01T01:05:14.610Z,10.23
2017-11-01T01:07:42.758Z,10.60
2017-11-01T01:10:11.707Z,10.30
2017-11-01T01:12:39.858Z,11.53
2017-11-01T01:15:08.006Z,10.80
2017-11-01T01:17:36.939Z,10.77
2017-11-01T01:20:05.097Z,11.10
2017-11-01T01:22:33.288Z,10.53
2017-11-01T01:25:01.438Z,12.00
2017-11-01T01:27:29.591Z,11.73
2017-11-01T01:29:58.539Z,12.50
2017-11-01T01:32:26.694Z,12.00
2017-11-01T01:34:54.858Z,13.85
2017-11-01T01:37:22.992Z,12.80
2017-11-01T01:39:51.922Z,14.20
2017-11-01T01:42:20.074Z,13.93
2017-11-01T01:44:48.247Z,14.43
2017-11-01T01:47:16.408Z,14.80
2017-11-01T01:49:44.578Z,18.10
2017-11-01T01:52:13.499Z,16.40
2017-11-01T01:54:41.660Z,17.20
2017-11-01T01:57:09.866Z,16.07
2017-11-01T01:59:38.143Z,14.80
2017-11-01T02:02:06.300Z,15.63
2017-11-01T02:04:34.491Z,16.10
2017-11-01T02:07:02.643Z,18.67
2017-11-01T02:09:30.792Z,18.03
2017-11-01T02:11:58.990Z,16.70
2017-11-01T02:14:27.134Z,17.70
2017-11-01T02:16:56.064Z,18.60
2017-11-01T02:19:24.219Z,16.27
2017-11-01T02:21:52.380Z,16.43
2017-11-01T02:24:20.527Z,17.80
2017-11-01T02:26:49.463Z,17.60
2017-11-01T02:29:17.617Z,16.80
2017-11-01T02:31:45.824Z,16.67
2017-11-01T02:34:13.968Z,17.00
2017-11-01T02:36:42.138Z,19.27
2017-11-01T02:39:10.311Z,19.23
2017-11-01T02:41:38.484Z,19.25
2017-11-01T02:44:06.638Z,21.00
2017-11-01T02:46:34.795Z,21.23
2017-11-01T02:49:03.724Z,18.97
2017-11-01T02:51:31.920Z,20.27
2017-11-01T02:54:00.093Z,20.90
2017-11-01T02:56:28.260Z,22.37
2017-11-01T02:58:56.435Z,19.47
2017-11-01T03:01:24.588Z,20.67
2017-11-01T03:03:52.754Z,22.13
2017-11-01T03:06:20.902Z,22.75
2017-11-01T03:08:49.838Z,23.40
2017-11-01T03:11:17.995Z,20.53
2017-11-01T03:13:46.154Z,22.50
2017-11-01T03:16:14.300Z,21.90
2017-11-01T03:18:42.454Z,24.00
2017-11-01T03:21:10.616Z,22.87
2017-11-01T03:23:38.874Z,23.00
2017-11-01T03:26:07.019Z,25.37
2017-11-01T03:28:35.228Z,27.67
2017-11-01T03:31:03.819Z,27.70
2017-11-01T03:33:31.971Z,29.67
2017-11-01T03:36:00.159Z,32.85
2017-11-01T03:38:28.337Z,30.20
2017-11-01T03:40:56.497Z,29.70
2017-11-01T03:43:24.642Z,27.53
2017-11-01T03:45:52.812Z,28.55
2017-11-01T03:48:20.959Z,28.90
2017-11-01T03:50:49.903Z,31.30
2017-11-01T03:53:18.071Z,31.85
2017-11-01T03:55:46.243Z,31.57
2017-11-01T03:58:14.427Z,29.77
2017-11-01T04:00:42.611Z,30.52
2017-11-01T04:03:10.771Z,31.65
2017-11-01T04:05:38.934Z,32.65
2017-11-01T04:08:07.092Z,34.03
2017-11-01T04:10:35.259Z,34.28
2017-11-01T04:13:03.407Z,33.50
2017-11-01T04:15:32.335Z,34.07
2017-11-01T04:18:02.410Z,33.83
2017-11-01T04:20:31.376Z,32.53
2017-11-01T04:22:59.520Z,33.90
2017-11-01T04:25:28.431Z,37.00
2017-11-01T04:27:56.599Z,31.20
2017-11-01T04:30:24.759Z,33.25
2017-11-01T04:32:52.938Z,33.97
2017-11-01T04:35:21.091Z,36.58
2017-11-01T04:37:49.277Z,34.90
2017-11-01T04:40:18.108Z,34.60
2017-11-01T04:42:47.056Z,35.07
2017-11-01T04:45:15.203Z,36.35
2017-11-01T04:47:43.520Z,36.60
2017-11-01T04:50:11.683Z,34.40
2017-11-01T04:52:40.648Z,31.42
2017-11-01T04:55:12.725Z,35.30
2017-11-01T04:57:41.730Z,35.55
2017-11-01T05:00:15.334Z,34.08
2017-11-01T05:02:43.527Z,34.37
2017-11-01T05:05:17.361Z,36.23
2017-11-01T05:07:46.416Z,31.00
2017-11-01T05:10:16.467Z,32.80
2017-11-01T05:12:45.423Z,30.02
2017-11-01T05:15:23.732Z,30.70
2017-11-01T05:17:51.894Z,28.93
2017-11-01T05:20:20.070Z,30.43
2017-11-01T05:22:48.237Z,31.05
2017-11-01T05:25:22.028Z,34.20
2017-11-01T05:27:50.175Z,32.08
2017-11-01T05:30:18.394Z,31.27
2017-11-01T05:32:46.556Z,33.35
2017-11-01T05:35:14.724Z,33.45
2017-11-01T05:37:42.870Z,30.15
2017-11-01T05:40:11.040Z,31.73
2017-11-01T05:42:39.211Z,31.10
2017-11-01T05:45:08.140Z,33.33
2017-11-01T05:47:36.292Z,31.00
2017-11-01T05:50:04.456Z,29.98
2017-11-01T05:52:32.631Z,31.52
2017-11-01T05:55:00.831Z,31.70
2017-11-01T05:57:29.007Z,34.20
2017-11-01T05:59:57.182Z,31.37
2017-11-01T06:02:25.355Z,30.77
2017-11-01T06:04:53.523Z,34.60
2017-11-01T06:07:21.695Z,29.27
2017-11-01T06:09:49.850Z,31.55
2017-11-01T06:12:18.015Z,30.17
2017-11-01T06:14:46.163Z,32.97
2017-11-01T06:17:15.116Z,31.95
2017-11-01T06:19:43.257Z,29.63
2017-11-01T06:22:11.463Z,32.60
2017-11-01T06:24:39.652Z,37.33
2017-11-01T06:27:07.907Z,32.38
2017-11-01T06:29:36.052Z,27.40
2017-11-01T06:32:04.227Z,36.73
2017-11-01T06:34:32.559Z,25.47
2017-11-01T06:37:00.806Z,25.48
2017-11-01T06:39:28.972Z,25.83
2017-11-01T06:41:57.122Z,26.20
2017-11-01T06:44:25.294Z,27.90
2017-11-01T06:46:53.451Z,26.95
2017-11-01T06:49:21.616Z,28.73
2017-11-01T06:51:51.992Z,26.10
2017-11-01T06:54:20.167Z,25.53
2017-11-01T06:56:48.344Z,26.40
2017-11-01T06:59:16.500Z,26.70
2017-11-01T07:01:44.671Z,29.95
2017-11-01T07:04:12.847Z,27.40
2017-11-01T07:06:41.022Z,25.88
2017-11-01T07:09:09.187Z,27.87
2017-11-01T07:11:42.895Z,26.15
2017-11-01T07:14:11.071Z,25.52
2017-11-01T07:16:39.235Z,26.50
2017-11-01T07:19:07.383Z,27.85
2017-11-01T07:21:35.609Z,27.77
2017-11-01T07:24:03.759Z,29.02
2017-11-01T07:26:31.915Z,27.57
2017-11-01T07:29:00.063Z,26.50
2017-11-01T07:31:29.004Z,26.27
2017-11-01T07:33:57.163Z,28.23
2017-11-01T07:36:25.354Z,26.52
2017-11-01T07:38:53.507Z,31.07
2017-11-01T07:41:21.698Z,23.90
2017-11-01T07:43:49.867Z,26.98
2017-11-01T07:46:18.503Z,24.40
2017-11-01T07:48:47.448Z,27.30
2017-11-01T07:51:15.635Z,26.83
2017-11-01T07:53:43.795Z,24.63
2017-11-01T07:56:11.948Z,28.67
2017-11-01T07:58:40.115Z,26.63
2017-11-01T08:01:08.306Z,26.17
2017-11-01T08:03:36.472Z,25.45
2017-11-01T08:06:04.616Z,25.40
2017-11-01T08:08:32.786Z,27.90
2017-11-01T08:11:01.002Z,25.58
2017-11-01T08:13:29.160Z,25.27
2017-11-01T08:15:57.300Z,25.97
2017-11-01T08:18:26.227Z,24.47
2017-11-01T08:20:54.376Z,24.33
2017-11-01T08:23:22.551Z,24.40
2017-11-01T08:25:50.694Z,23.23
2017-11-01T08:28:19.655Z,21.62
2017-11-01T08:30:47.799Z,22.07
2017-11-01T08:33:15.988Z,20.80
2017-11-01T08:35:44.560Z,21.20
2017-11-01T08:38:12.702Z,17.33
2017-11-01T08:40:41.742Z,20.77
2017-11-01T08:43:09.900Z,18.00
2017-11-01T08:45:38.062Z,18.73
2017-11-01T08:48:06.215Z,16.00
2017-11-01T08:50:34.382Z,16.43
2017-11-01T08:53:03.312Z,17.30
2017-11-01T08:55:31.524Z,17.90
2017-11-01T08:58:01.085Z,16.80
2017-11-01T09:00:29.285Z,12.67
2017-11-01T09:02:57.432Z,15.30
2017-11-01T09:05:25.611Z,12.83
2017-11-01T09:07:53.747Z,14.37
2017-11-01T09:10:22.679Z,14.67
2017-11-01T09:12:50.862Z,14.07
2017-11-01T09:15:19.010Z,14.07
2017-11-01T09:17:47.919Z,13.00
2017-11-01T09:20:16.207Z,12.60
2017-11-01T09:22:44.377Z,13.17
2017-11-01T09:25:12.516Z,12.93
2017-11-01T09:27:40.679Z,12.50
2017-11-01T09:30:08.836Z,13.13
2017-11-01T09:32:37.774Z,13.90
2017-11-01T09:35:05.921Z,11.83
2017-11-01T09:37:34.116Z,12.13
2017-11-01T09:40:02.292Z,11.13
2017-11-01T09:42:30.568Z,11.10
2017-11-01T09:44:58.724Z,11.20
2017-11-01T09:47:27.247Z,12.80
2017-11-01T09:49:55.427Z,11.10
2017-11-01T09:52:23.590Z,8.90
2017-11-01T09:54:51.759Z,10.60
2017-11-01T09:57:19.912Z,9.87
2017-11-01T09:59:48.224Z,9.90
2017-11-01T10:02:17.171Z,10.00
2017-11-01T10:04:45.345Z,10.77
2017-11-01T10:07:13.547Z,11.60
2017-11-01T10:09:41.718Z,11.40
2017-11-01T10:12:10.027Z,12.73
2017-11-01T10:14:38.222Z,13.33
2017-11-01T10:17:06.665Z,14.10
2017-11-01T10:19:35.874Z,13.20
2017-11-01T10:22:04.977Z,13.57
2017-11-01T10:24:33.172Z,15.70
2017-11-01T10:27:01.487Z,14.20
2017-11-01T10:29:29.670Z,15.80
2017-11-01T10:31:57.836Z,17.00
2017-11-01T10:34:26.024Z,19.10
2017-11-01T10:36:54.166Z,17.27
2017-11-01T10:39:22.325Z,16.93
2017-11-01T10:41:50.491Z,18.00
2017-11-01T10:44:18.643Z,19.07
2017-11-01T10:46:47.019Z,19.90
2017-11-01T10:49:15.179Z,18.33
2017-11-01T10:51:44.112Z,21.27
2017-11-01T10:54:12.291Z,19.37
2017-11-01T10:56:51.394Z,19.00
2017-11-01T10:59:19.792Z,21.43
2017-11-01T11:01:47.956Z,22.33
2017-11-01T11:04:16.138Z,21.70
2017-11-01T11:06:44.352Z,21.90
2017-11-01T11:09:13.266Z,21.83
2017-11-01T11:11:41.436Z,23.13
2017-11-01T11:14:09.603Z,24.47
2017-11-01T11:16:38.548Z,23.17
2017-11-01T11:19:06.714Z,27.13
2017-11-01T11:21:34.873Z,26.53
2017-11-01T11:24:03.051Z,25.23
2017-11-01T11:26:31.214Z,25.70
2017-11-01T11:28:59.376Z,28.37
2017-11-01T11:31:27.535Z,28.23
2017-11-01T11:33:56.469Z,29.27
2017-11-01T11:36:24.740Z,27.93
2017-11-01T11:38:53.019Z,31.87
2017-11-01T11:41:21.189Z,28.97
2017-11-01T11:43:49.438Z,29.77
2017-11-01T11:46:17.592Z,30.57
2017-11-01T11:48:46.537Z,30.33
2017-11-01T11:51:14.734Z,30.90
2017-11-01T11:53:42.929Z,33.77
2017-11-01T11:56:11.873Z,30.73
2017-11-01T11:58:40.034Z,29.37
2017-11-01T12:01:08.514Z,31.47
2017-11-01T12:03:36.959Z,29.87
2017-11-01T12:06:05.131Z,34.47
2017-11-01T12:08:33.287Z,32.30
2017-11-01T12:11:02.240Z,30.50
2017-11-01T12:13:30.390Z,30.77
2017-11-01T12:15:58.564Z,32.03
2017-11-01T12:18:26.714Z,33.20
2017-11-01T12:20:54.881Z,28.73
2017-11-01T12:23:23.800Z,31.57
2017-11-01T12:25:51.985Z,30.37
2017-11-01T12:28:20.143Z,29.00
2017-11-01T12:30:48.322Z,29.93
2017-11-01T12:33:16.597Z,30.90
2017-11-01T12:35:44.758Z,28.43
2017-11-01T12:38:12.914Z,26.77
2017-11-01T12:40:41.067Z,27.57
2017-11-01T12:43:10.012Z,25.40
2017-11-01T12:45:38.180Z,25.30
2017-11-01T12:48:06.343Z,27.23
2017-11-01T12:50:34.492Z,25.50
2017-11-01T12:53:03.781Z,22.53
2017-11-01T12:55:32.719Z,23.57
2017-11-01T12:58:00.897Z,25.47
2017-11-01T13:00:29.612Z,22.50
2017-11-01T13:02:57.860Z,27.27
2017-11-01T13:05:26.020Z,24.57
2017-11-01T13:07:54.200Z,29.80
2017-11-01T13:10:22.347Z,24.60
2017-11-01T13:12:50.551Z,28.87
2017-11-01T13:15:18.694Z,26.17
2017-11-01T13:17:46.840Z,27.53
2017-11-01T13:20:15.778Z,25.97
2017-11-01T13:22:43.932Z,26.87
2017-11-01T13:25:12.100Z,26.70
2017-11-01T13:27:40.301Z,30.40
2017-11-01T13:30:08.469Z,27.93
2017-11-01T13:32:36.623Z,30.73
2017-11-01T13:35:04.822Z,29.50
2017-11-01T13:37:32.980Z,30.43
2017-11-01T13:40:01.176Z,27.47
2017-11-01T13:42:29.338Z,28.83
2017-11-01T13:44:57.517Z,27.07
2017-11-01T13:47:25.675Z,30.57
2017-11-01T13:49:53.842Z,27.23
2017-11-01T13:52:21.991Z,26.37
2017-11-01T13:54:50.531Z,29.23
2017-11-01T13:57:18.696Z,27.07
2017-11-01T13:59:46.849Z,27.87
2017-11-01T14:02:15.030Z,26.87
2017-11-01T14:04:43.879Z,25.80
2017-11-01T14:07:12.052Z,28.20
2017-11-01T14:09:40.976Z,28.73
2017-11-01T14:12:09.150Z,31.80
2017-11-01T14:14:37.327Z,29.03
2017-11-01T14:17:05.499Z,29.10
2017-11-01T14:19:34.387Z,28.13
2017-11-01T14:22:02.579Z,28.83
2017-11-01T14:24:30.753Z,29.00
2017-11-01T14:26:58.950Z,31.87
2017-11-01T14:29:27.876Z,29.90
2017-11-01T14:31:56.892Z,27.70
2017-11-01T14:34:25.042Z,29.53
2017-11-01T14:36:53.204Z,28.77
2017-11-01T14:39:21.425Z,29.13
2017-11-01T14:41:49.586Z,28.67
2017-11-01T14:44:17.866Z,31.17
2017-11-01T14:46:46.018Z,28.43
2017-11-01T14:49:14.200Z,28.63
2017-11-01T14:51:42.362Z,28.23
2017-11-01T14:54:10.542Z,29.43
2017-11-01T14:56:38.700Z,31.63
2017-11-01T14:59:06.895Z,28.90
2017-11-01T15:01:35.061Z,29.20
2017-11-01T15:04:03.819Z,29.37
2017-11-01T15:06:32.794Z,27.90
2017-11-01T15:09:01.740Z,28.63
2017-11-01T15:11:29.909Z,28.37
2017-11-01T15:13:58.103Z,30.87
2017-11-01T15:16:26.423Z,27.90
2017-11-01T15:18:54.592Z,29.30
2017-11-01T15:21:23.540Z,30.17
2017-11-01T15:23:51.692Z,28.50
2017-11-01T15:26:19.867Z,30.27
2017-11-01T15:28:48.023Z,31.00
2017-11-01T15:31:16.208Z,30.97
2017-11-01T15:33:44.350Z,31.00
2017-11-01T15:36:12.525Z,29.33
2017-11-01T15:38:40.688Z,32.50
2017-11-01T15:41:09.631Z,32.53
2017-11-01T15:43:43.534Z,34.50
2017-11-01T15:46:11.707Z,36.00
2017-11-01T15:48:39.862Z,33.33
2017-11-01T15:51:08.060Z,35.20
2017-11-01T15:53:42.184Z,34.30
2017-11-01T15:56:10.535Z,36.27
2017-11-01T15:58:38.698Z,35.30
2017-11-01T16:01:06.865Z,34.63
2017-11-01T16:03:35.035Z,33.30
2017-11-01T16:06:03.235Z,35.47
2017-11-01T16:08:31.428Z,33.23
2017-11-01T16:10:59.652Z,33.80
2017-11-01T16:13:27.836Z,37.00
2017-11-01T16:15:56.019Z,39.20
2017-11-01T16:18:24.208Z,36.57
2017-11-01T16:20:52.368Z,33.30
2017-11-01T16:23:20.545Z,34.90
2017-11-01T16:25:49.200Z,39.03
2017-11-01T16:28:17.497Z,37.80
2017-11-01T16:30:45.656Z,35.33
2017-11-01T16:33:13.868Z,35.73
2017-11-01T16:35:43.311Z,40.70
2017-11-01T16:38:12.239Z,35.40
2017-11-01T16:40:40.934Z,34.37
2017-11-01T16:43:09.087Z,35.30
2017-11-01T16:45:37.280Z,35.33
2017-11-01T16:48:05.439Z,36.03
2017-11-01T16:50:33.608Z,37.17
2017-11-01T16:53:01.763Z,35.37
2017-11-01T16:55:29.969Z,40.57
2017-11-01T16:57:58.132Z,35.23
2017-11-01T17:00:27.407Z,38.17
2017-11-01T17:02:55.969Z,38.43
2017-11-01T17:05:24.158Z,38.53
2017-11-01T17:07:52.935Z,38.33
2017-11-01T17:10:21.874Z,37.97
2017-11-01T17:12:50.011Z,35.67
2017-11-01T17:15:18.328Z,37.90
2017-11-01T17:17:46.484Z,35.57
2017-11-01T17:20:14.646Z,38.57
2017-11-01T17:22:42.807Z,37.63
2017-11-01T17:25:10.967Z,40.00
2017-11-01T17:27:40.018Z,39.53
2017-11-01T17:30:08.186Z,39.57
2017-11-01T17:32:36.364Z,40.27
2017-11-01T17:35:04.543Z,38.83
2017-11-01T17:37:32.747Z,37.30
2017-11-01T17:40:01.697Z,40.43
2017-11-01T17:42:29.876Z,39.60
2017-11-01T17:44:58.022Z,41.27
2017-11-01T17:47:26.211Z,39.97
2017-11-01T17:49:54.384Z,41.03
2017-11-01T17:52:22.572Z,42.80
2017-11-01T17:54:50.746Z,44.70
2017-11-01T17:57:18.919Z,37.00
2017-11-01T17:59:47.067Z,38.80
2017-11-01T18:02:15.238Z,41.30
2017-11-01T18:04:43.515Z,43.17
2017-11-01T18:07:12.461Z,41.30
2017-11-01T18:09:41.409Z,40.30
2017-11-01T18:12:09.593Z,37.77
2017-11-01T18:14:37.778Z,38.13
2017-11-01T18:17:06.751Z,36.60
2017-11-01T18:19:35.455Z,35.63
2017-11-01T18:22:03.724Z,37.20
2017-11-01T18:24:31.906Z,35.53
2017-11-01T18:27:00.091Z,35.50
2017-11-01T18:29:29.039Z,37.80
2017-11-01T18:31:57.198Z,36.03
2017-11-01T18:34:25.368Z,37.30
2017-11-01T18:36:53.527Z,38.33
2017-11-01T18:39:21.722Z,38.33
2017-11-01T18:41:49.885Z,35.80
2017-11-01T18:44:18.077Z,38.80
2017-11-01T18:46:46.270Z,35.27
2017-11-01T18:49:14.435Z,37.47
2017-11-01T18:51:42.599Z,36.57
2017-11-01T18:54:10.760Z,37.10
2017-11-01T18:56:38.927Z,38.77
2017-11-01T18:59:07.107Z,37.67
2017-11-01T19:01:35.296Z,36.67
2017-11-01T19:04:03.465Z,36.53
2017-11-01T19:06:31.643Z,37.10
2017-11-01T19:08:59.803Z,40.40
2017-11-01T19:11:27.967Z,37.50
2017-11-01T19:13:56.128Z,36.37
2017-11-01T19:16:24.324Z,35.83
2017-11-01T19:18:52.483Z,36.00
2017-11-01T19:21:20.660Z,37.30
2017-11-01T19:23:48.846Z,35.47
2017-11-01T19:26:17.409Z,37.53
2017-11-01T19:28:45.616Z,36.50
2017-11-01T19:31:13.772Z,36.13
2017-11-01T19:33:41.952Z,37.77
2017-11-01T19:36:10.111Z,36.50
2017-11-01T19:38:38.287Z,34.80
2017-11-01T19:41:06.465Z,35.37
2017-11-01T19:43:34.636Z,38.23
2017-11-01T19:46:02.811Z,36.90
2017-11-01T19:48:30.982Z,41.13
2017-11-01T19:50:59.131Z,39.77
2017-11-01T19:53:27.307Z,42.00
2017-11-01T19:55:55.491Z,39.60
2017-11-01T19:58:23.642Z,44.97
2017-11-01T20:00:52.027Z,41.53
2017-11-01T20:03:20.195Z,47.17
2017-11-01T20:05:48.369Z,48.13
2017-11-01T20:08:16.549Z,45.80
2017-11-01T20:10:44.731Z,45.13
2017-11-01T20:13:12.891Z,43.63
2017-11-01T20:15:41.068Z,44.37
2017-11-01T20:18:09.223Z,43.90
2017-11-01T20:20:37.616Z,39.50
2017-11-01T20:23:05.777Z,39.90
2017-11-01T20:25:33.952Z,40.10
2017-11-01T20:28:02.106Z,39.00
2017-11-01T20:30:31.045Z,39.70
2017-11-01T20:32:59.203Z,38.73
2017-11-01T20:35:27.428Z,39.80
2017-11-01T20:37:55.592Z,35.30
2017-11-01T20:40:23.776Z,39.37
2017-11-01T20:42:51.937Z,38.57
2017-11-01T20:45:20.832Z,37.70
2017-11-01T20:47:49.764Z,40.97
2017-11-01T20:50:18.701Z,38.27
2017-11-01T20:52:46.863Z,37.23
2017-11-01T20:55:15.027Z,41.60
2017-11-01T20:57:43.712Z,37.90
2017-11-01T21:00:11.879Z,37.87
2017-11-01T21:02:40.170Z,37.70
2017-11-01T21:05:08.331Z,36.87
2017-11-01T21:07:36.508Z,39.37
2017-11-01T21:10:04.665Z,38.70
2017-11-01T21:12:33.535Z,34.87
2017-11-01T21:15:01.678Z,34.43
2017-11-01T21:17:30.635Z,34.80
2017-11-01T21:19:58.796Z,32.93
2017-11-01T21:22:26.967Z,35.73
2017-11-01T21:24:55.256Z,35.80
2017-11-01T21:27:23.531Z,33.07
2017-11-01T21:29:51.696Z,34.60
2017-11-01T21:32:19.863Z,35.03
2017-11-01T21:34:48.015Z,32.70
2017-11-01T21:37:16.183Z,28.10
2017-11-01T21:39:44.335Z,29.13
2017-11-01T21:42:13.258Z,29.40
2017-11-01T21:44:41.431Z,33.00
2017-11-01T21:47:09.625Z,29.73
2017-11-01T21:49:37.786Z,33.63
2017-11-01T21:52:05.930Z,30.00
2017-11-01T21:54:34.138Z,30.27
2017-11-01T21:57:02.288Z,30.53
2017-11-01T21:59:30.478Z,29.20
2017-11-01T22:01:58.635Z,33.93
2017-11-01T22:04:26.846Z,30.60
2017-11-01T22:06:55.006Z,33.53
2017-11-01T22:09:23.189Z,31.77
2017-11-01T22:11:51.343Z,30.67
2017-11-01T22:14:19.520Z,30.43
2017-11-01T22:16:47.678Z,28.70
2017-11-01T22:19:15.827Z,29.53
2017-11-01T22:21:44.760Z,29.37
2017-11-01T22:24:13.427Z,27.50
2017-11-01T22:26:41.590Z,27.37
2017-11-01T22:29:09.882Z,29.00
2017-11-01T22:31:38.052Z,29.53
2017-11-01T22:34:06.212Z,27.00
2017-11-01T22:36:34.392Z,26.77
2017-11-01T22:39:02.540Z,25.60
2017-11-01T22:41:31.488Z,27.30
2017-11-01T22:44:00.060Z,24.97
2017-11-01T22:46:28.241Z,27.50
2017-11-01T22:48:56.397Z,26.73
2017-11-01T22:51:24.756Z,26.37
2017-11-01T22:53:52.904Z,24.97
2017-11-01T22:56:21.829Z,24.37
2017-11-01T22:58:50.021Z,25.40
2017-11-01T23:01:18.192Z,24.63
2017-11-01T23:03:46.464Z,24.40
2017-11-01T23:06:14.671Z,24.37
2017-11-01T23:08:42.834Z,24.67
2017-11-01T23:11:10.993Z,23.50
2017-11-01T23:13:39.172Z,23.80
2017-11-01T23:16:07.338Z,24.70
2017-11-01T23:18:35.507Z,25.20
2017-11-01T23:21:03.679Z,21.27
2017-11-01T23:23:32.195Z,23.03
2017-11-01T23:26:00.348Z,24.43
2017-11-01T23:28:28.527Z,26.40
2017-11-01T23:30:56.687Z,25.13
2017-11-01T23:33:24.851Z,24.83
2017-11-01T23:35:53.120Z,27.33
2017-11-01T23:38:21.527Z,27.30
2017-11-01T23:40:49.791Z,27.47
2017-11-01T23:43:17.957Z,23.23
2017-11-01T23:45:46.128Z,25.77
2017-11-01T23:48:14.416Z,21.93
2017-11-01T23:50:42.589Z,22.57
2017-11-01T23:53:10.748Z,21.93
2017-11-01T23:55:38.927Z,20.17
2017-11-01T23:58:07.200Z,20.67
